U08 weather

Perkins Field
Overton, Nevada, United States

Public forecast

Using degrees Fahrenheit for public forecast. Weather courtesy of forecast.io.

Closest aviation weather report (METAR) to Perkins Field

Closest report is Nellis Air Force Base, 34.8 nm (64.5 km) SW. Retrieved 2019/10/15 04:58 UTC (52 minutes ago):

KLSV 150458Z 03004KT 10SM CLR 16/M05 A2997 RMK AO2A SLP139 T01581047

Closest aviation forecast (TAF) to Perkins Field

Forecast is more than 12 hours old.

Closest forecast is Nellis Air Force Base, 34.8 nm (64.5 km) SW. Retrieved 2019/10/14 15:58 UTC (14 hours ago):

TAF KLSV 141500Z 1415/1521 VRB06KT 9999 FEW250 QNH2992INS BECMG 1417/1418 VRB06KT 9999 SKC QNH2986INS TX27/1422Z TN16/1512Z